Terminal Aerodrome Forecast
Issued by NWS

Home | Current Version | Previous Version | Text Only | Print | Product List | Glossary On
Versions: 1 2 3 4 5 6 7 8 9 10 11 12
000
FTUS46 KHNX 031726
TAFMCE
TAF
KMCE 031726Z 0318/0418 32011KT P6SM SKC
     FM032100 32013G20KT P6SM FEW250
     FM040600 32008KT P6SM SCT250=

USA.gov is the U.S. government's official web portal to all federal, state and local government web resources and services.